sensor_id;sensor_type;location;lat;lon;timestamp;P1;durP1;ratioP1;P2;durP2;ratioP2
15096;SDS011;7649;52.084;7.478;2022-09-09T00:00:47;3.30;;;2.40;;
15096;SDS011;7649;52.084;7.478;2022-09-09T00:03:17;4.83;;;2.30;;
15096;SDS011;7649;52.084;7.478;2022-09-09T00:05:49;4.13;;;2.73;;
15096;SDS011;7649;52.084;7.478;2022-09-09T00:08:20;5.87;;;2.70;;
15096;SDS011;7649;52.084;7.478;2022-09-09T00:10:51;6.23;;;2.73;;
15096;SDS011;7649;52.084;7.478;2022-09-09T00:13:22;4.60;;;2.50;;
15096;SDS011;7649;52.084;7.478;2022-09-09T00:15:55;3.77;;;2.50;;
15096;SDS011;7649;52.084;7.478;2022-09-09T00:18:27;5.30;;;2.47;;
15096;SDS011;7649;52.084;7.478;2022-09-09T00:20:58;6.03;;;3.00;;
15096;SDS011;7649;52.084;7.478;2022-09-09T00:23:29;4.73;;;2.57;;
15096;SDS011;7649;52.084;7.478;2022-09-09T00:26:02;3.67;;;2.00;;
15096;SDS011;7649;52.084;7.478;2022-09-09T00:28:33;4.90;;;2.67;;
15096;SDS011;7649;52.084;7.478;2022-09-09T00:31:08;4.00;;;2.50;;
15096;SDS011;7649;52.084;7.478;2022-09-09T00:33:39;6.47;;;2.47;;
15096;SDS011;7649;52.084;7.478;2022-09-09T00:36:09;6.70;;;2.87;;
15096;SDS011;7649;52.084;7.478;2022-09-09T00:38:42;3.30;;;2.20;;
15096;SDS011;7649;52.084;7.478;2022-09-09T00:41:13;3.63;;;2.30;;
15096;SDS011;7649;52.084;7.478;2022-09-09T00:43:43;4.20;;;2.33;;
15096;SDS011;7649;52.084;7.478;2022-09-09T00:46:19;4.77;;;2.10;;
15096;SDS011;7649;52.084;7.478;2022-09-09T00:48:52;3.87;;;2.37;;
15096;SDS011;7649;52.084;7.478;2022-09-09T00:51:24;3.53;;;2.30;;
15096;SDS011;7649;52.084;7.478;2022-09-09T00:54:05;3.07;;;2.30;;
15096;SDS011;7649;52.084;7.478;2022-09-09T00:56:40;4.53;;;2.60;;
15096;SDS011;7649;52.084;7.478;2022-09-09T00:59:12;4.97;;;2.30;;
15096;SDS011;7649;52.084;7.478;2022-09-09T01:01:44;3.40;;;2.40;;
15096;SDS011;7649;52.084;7.478;2022-09-09T01:04:13;3.43;;;2.40;;
15096;SDS011;7649;52.084;7.478;2022-09-09T01:06:44;2.50;;;2.30;;
15096;SDS011;7649;52.084;7.478;2022-09-09T01:09:19;3.30;;;2.00;;
15096;SDS011;7649;52.084;7.478;2022-09-09T01:11:55;2.57;;;2.00;;
15096;SDS011;7649;52.084;7.478;2022-09-09T01:14:35;2.00;;;1.83;;
15096;SDS011;7649;52.084;7.478;2022-09-09T01:17:08;2.63;;;1.80;;
15096;SDS011;7649;52.084;7.478;2022-09-09T01:19:40;2.60;;;2.10;;
15096;SDS011;7649;52.084;7.478;2022-09-09T01:22:15;2.50;;;1.80;;
15096;SDS011;7649;52.084;7.478;2022-09-09T01:24:52;1.90;;;1.80;;
15096;SDS011;7649;52.084;7.478;2022-09-09T01:27:23;1.80;;;1.70;;
15096;SDS011;7649;52.084;7.478;2022-09-09T01:29:52;1.53;;;1.43;;
15096;SDS011;7649;52.084;7.478;2022-09-09T01:32:41;1.83;;;1.70;;
15096;SDS011;7649;52.084;7.478;2022-09-09T01:35:10;1.70;;;1.40;;
15096;SDS011;7649;52.084;7.478;2022-09-09T01:37:39;2.03;;;1.70;;
15096;SDS011;7649;52.084;7.478;2022-09-09T01:40:08;3.37;;;1.93;;
15096;SDS011;7649;52.084;7.478;2022-09-09T01:42:37;2.23;;;1.70;;
15096;SDS011;7649;52.084;7.478;2022-09-09T01:45:06;1.77;;;1.67;;
15096;SDS011;7649;52.084;7.478;2022-09-09T01:47:35;2.00;;;1.63;;
15096;SDS011;7649;52.084;7.478;2022-09-09T01:50:03;2.80;;;1.80;;
15096;SDS011;7649;52.084;7.478;2022-09-09T01:52:32;4.43;;;2.20;;
15096;SDS011;7649;52.084;7.478;2022-09-09T01:55:01;2.57;;;2.10;;
15096;SDS011;7649;52.084;7.478;2022-09-09T01:57:30;2.97;;;2.20;;
15096;SDS011;7649;52.084;7.478;2022-09-09T02:00:03;2.63;;;2.20;;
15096;SDS011;7649;52.084;7.478;2022-09-09T02:02:35;2.97;;;2.50;;
15096;SDS011;7649;52.084;7.478;2022-09-09T02:05:07;4.03;;;2.77;;
15096;SDS011;7649;52.084;7.478;2022-09-09T02:07:40;3.87;;;3.10;;
15096;SDS011;7649;52.084;7.478;2022-09-09T02:10:09;3.90;;;3.30;;
15096;SDS011;7649;52.084;7.478;2022-09-09T02:12:39;4.50;;;3.60;;
15096;SDS011;7649;52.084;7.478;2022-09-09T02:15:11;5.73;;;3.70;;
15096;SDS011;7649;52.084;7.478;2022-09-09T02:17:42;3.80;;;3.37;;
15096;SDS011;7649;52.084;7.478;2022-09-09T02:20:11;4.53;;;3.87;;
15096;SDS011;7649;52.084;7.478;2022-09-09T02:22:41;5.00;;;3.30;;
15096;SDS011;7649;52.084;7.478;2022-09-09T02:25:12;4.77;;;4.10;;
15096;SDS011;7649;52.084;7.478;2022-09-09T02:27:41;4.57;;;4.13;;
15096;SDS011;7649;52.084;7.478;2022-09-09T02:30:12;4.60;;;4.00;;
15096;SDS011;7649;52.084;7.478;2022-09-09T02:32:41;5.67;;;3.87;;
15096;SDS011;7649;52.084;7.478;2022-09-09T02:35:10;4.50;;;4.10;;
15096;SDS011;7649;52.084;7.478;2022-09-09T02:37:41;6.50;;;4.17;;
15096;SDS011;7649;52.084;7.478;2022-09-09T02:40:12;4.70;;;3.97;;
15096;SDS011;7649;52.084;7.478;2022-09-09T02:42:41;5.13;;;4.10;;
15096;SDS011;7649;52.084;7.478;2022-09-09T02:45:11;4.40;;;4.00;;
15096;SDS011;7649;52.084;7.478;2022-09-09T02:47:43;4.70;;;4.20;;
15096;SDS011;7649;52.084;7.478;2022-09-09T02:50:15;4.13;;;3.77;;
15096;SDS011;7649;52.084;7.478;2022-09-09T02:52:47;4.07;;;3.50;;
15096;SDS011;7649;52.084;7.478;2022-09-09T02:55:20;3.97;;;3.20;;
15096;SDS011;7649;52.084;7.478;2022-09-09T02:57:51;4.17;;;3.50;;
15096;SDS011;7649;52.084;7.478;2022-09-09T03:00:23;4.03;;;3.50;;
15096;SDS011;7649;52.084;7.478;2022-09-09T03:02:53;3.70;;;3.20;;
15096;SDS011;7649;52.084;7.478;2022-09-09T03:05:21;5.00;;;3.53;;
15096;SDS011;7649;52.084;7.478;2022-09-09T03:07:50;4.47;;;3.47;;
15096;SDS011;7649;52.084;7.478;2022-09-09T03:10:18;4.30;;;2.90;;
15096;SDS011;7649;52.084;7.478;2022-09-09T03:12:46;4.13;;;2.90;;
15096;SDS011;7649;52.084;7.478;2022-09-09T03:15:15;3.20;;;2.83;;
15096;SDS011;7649;52.084;7.478;2022-09-09T03:17:43;3.50;;;3.13;;
15096;SDS011;7649;52.084;7.478;2022-09-09T03:20:13;3.57;;;3.20;;
15096;SDS011;7649;52.084;7.478;2022-09-09T03:22:41;5.60;;;3.13;;
15096;SDS011;7649;52.084;7.478;2022-09-09T03:25:11;4.20;;;2.90;;
15096;SDS011;7649;52.084;7.478;2022-09-09T03:27:39;6.70;;;3.87;;
15096;SDS011;7649;52.084;7.478;2022-09-09T03:30:07;3.40;;;3.10;;
15096;SDS011;7649;52.084;7.478;2022-09-09T03:32:36;4.77;;;3.43;;
15096;SDS011;7649;52.084;7.478;2022-09-09T03:35:04;4.93;;;3.30;;
15096;SDS011;7649;52.084;7.478;2022-09-09T03:37:34;3.97;;;3.17;;
15096;SDS011;7649;52.084;7.478;2022-09-09T03:40:03;4.50;;;3.70;;
15096;SDS011;7649;52.084;7.478;2022-09-09T03:42:31;6.60;;;3.70;;
15096;SDS011;7649;52.084;7.478;2022-09-09T03:44:59;4.03;;;3.27;;
15096;SDS011;7649;52.084;7.478;2022-09-09T03:47:28;4.67;;;3.30;;
15096;SDS011;7649;52.084;7.478;2022-09-09T03:49:56;4.83;;;3.63;;
15096;SDS011;7649;52.084;7.478;2022-09-09T03:52:24;4.10;;;3.30;;
15096;SDS011;7649;52.084;7.478;2022-09-09T03:54:54;5.37;;;3.27;;
15096;SDS011;7649;52.084;7.478;2022-09-09T03:57:23;8.80;;;3.37;;
15096;SDS011;7649;52.084;7.478;2022-09-09T03:59:51;6.00;;;3.30;;
15096;SDS011;7649;52.084;7.478;2022-09-09T04:02:19;4.87;;;3.30;;
15096;SDS011;7649;52.084;7.478;2022-09-09T04:04:48;3.07;;;2.80;;
15096;SDS011;7649;52.084;7.478;2022-09-09T04:07:16;3.87;;;2.80;;
15096;SDS011;7649;52.084;7.478;2022-09-09T04:09:44;3.37;;;3.10;;
15096;SDS011;7649;52.084;7.478;2022-09-09T04:12:14;3.30;;;3.00;;
15096;SDS011;7649;52.084;7.478;2022-09-09T04:14:42;4.87;;;3.20;;
15096;SDS011;7649;52.084;7.478;2022-09-09T04:17:10;6.00;;;3.60;;
15096;SDS011;7649;52.084;7.478;2022-09-09T04:19:39;3.90;;;3.10;;
15096;SDS011;7649;52.084;7.478;2022-09-09T04:22:08;3.80;;;3.47;;
15096;SDS011;7649;52.084;7.478;2022-09-09T04:24:36;6.13;;;3.37;;
15096;SDS011;7649;52.084;7.478;2022-09-09T04:27:05;6.03;;;3.33;;
15096;SDS011;7649;52.084;7.478;2022-09-09T04:29:34;4.27;;;2.97;;
15096;SDS011;7649;52.084;7.478;2022-09-09T04:32:02;4.90;;;3.73;;
15096;SDS011;7649;52.084;7.478;2022-09-09T04:34:31;3.50;;;3.20;;
15096;SDS011;7649;52.084;7.478;2022-09-09T04:36:59;5.30;;;3.30;;
15096;SDS011;7649;52.084;7.478;2022-09-09T04:39:27;3.83;;;3.50;;
15096;SDS011;7649;52.084;7.478;2022-09-09T04:41:56;4.67;;;4.03;;
15096;SDS011;7649;52.084;7.478;2022-09-09T04:44:24;6.83;;;3.83;;
15096;SDS011;7649;52.084;7.478;2022-09-09T04:46:53;3.90;;;3.50;;
15096;SDS011;7649;52.084;7.478;2022-09-09T04:49:22;4.73;;;3.67;;
15096;SDS011;7649;52.084;7.478;2022-09-09T04:51:50;4.10;;;3.80;;
15096;SDS011;7649;52.084;7.478;2022-09-09T04:54:18;8.70;;;4.07;;
15096;SDS011;7649;52.084;7.478;2022-09-09T04:56:47;5.20;;;4.00;;
15096;SDS011;7649;52.084;7.478;2022-09-09T04:59:17;4.30;;;3.90;;
15096;SDS011;7649;52.084;7.478;2022-09-09T05:01:45;7.13;;;4.10;;
15096;SDS011;7649;52.084;7.478;2022-09-09T05:04:15;5.27;;;4.00;;
15096;SDS011;7649;52.084;7.478;2022-09-09T05:06:44;5.37;;;4.07;;
15096;SDS011;7649;52.084;7.478;2022-09-09T05:09:13;6.47;;;4.13;;
15096;SDS011;7649;52.084;7.478;2022-09-09T05:11:41;8.73;;;4.50;;
15096;SDS011;7649;52.084;7.478;2022-09-09T05:14:10;4.23;;;3.80;;
15096;SDS011;7649;52.084;7.478;2022-09-09T05:16:38;4.70;;;4.10;;
15096;SDS011;7649;52.084;7.478;2022-09-09T05:19:06;3.93;;;3.67;;
15096;SDS011;7649;52.084;7.478;2022-09-09T05:21:36;7.70;;;4.00;;
15096;SDS011;7649;52.084;7.478;2022-09-09T05:24:05;4.83;;;4.33;;
15096;SDS011;7649;52.084;7.478;2022-09-09T05:26:33;5.10;;;4.60;;
15096;SDS011;7649;52.084;7.478;2022-09-09T05:29:02;8.20;;;4.60;;
15096;SDS011;7649;52.084;7.478;2022-09-09T05:31:32;7.73;;;4.43;;
15096;SDS011;7649;52.084;7.478;2022-09-09T05:34:00;6.87;;;4.27;;
15096;SDS011;7649;52.084;7.478;2022-09-09T05:36:29;7.00;;;4.00;;
15096;SDS011;7649;52.084;7.478;2022-09-09T05:38:58;6.83;;;4.27;;
15096;SDS011;7649;52.084;7.478;2022-09-09T05:41:27;5.87;;;4.10;;
15096;SDS011;7649;52.084;7.478;2022-09-09T05:43:56;6.23;;;3.90;;
15096;SDS011;7649;52.084;7.478;2022-09-09T05:46:27;5.37;;;3.97;;
15096;SDS011;7649;52.084;7.478;2022-09-09T05:48:56;8.57;;;4.10;;
15096;SDS011;7649;52.084;7.478;2022-09-09T05:51:25;7.07;;;4.17;;
15096;SDS011;7649;52.084;7.478;2022-09-09T05:53:54;4.77;;;3.80;;
15096;SDS011;7649;52.084;7.478;2022-09-09T05:56:26;4.27;;;3.53;;
15096;SDS011;7649;52.084;7.478;2022-09-09T05:58:55;7.90;;;3.67;;
15096;SDS011;7649;52.084;7.478;2022-09-09T06:01:24;5.33;;;4.00;;
15096;SDS011;7649;52.084;7.478;2022-09-09T06:03:53;5.43;;;3.40;;
15096;SDS011;7649;52.084;7.478;2022-09-09T06:06:22;6.10;;;4.03;;
15096;SDS011;7649;52.084;7.478;2022-09-09T06:08:52;4.67;;;3.23;;
15096;SDS011;7649;52.084;7.478;2022-09-09T06:11:22;5.47;;;3.50;;
15096;SDS011;7649;52.084;7.478;2022-09-09T06:13:53;13.00;;;3.80;;
15096;SDS011;7649;52.084;7.478;2022-09-09T06:16:22;4.43;;;3.30;;
15096;SDS011;7649;52.084;7.478;2022-09-09T06:18:51;6.87;;;3.33;;
15096;SDS011;7649;52.084;7.478;2022-09-09T06:21:20;5.53;;;3.30;;
15096;SDS011;7649;52.084;7.478;2022-09-09T06:23:49;6.70;;;3.20;;
15096;SDS011;7649;52.084;7.478;2022-09-09T06:26:26;4.23;;;3.17;;
15096;SDS011;7649;52.084;7.478;2022-09-09T06:28:55;7.60;;;3.23;;
15096;SDS011;7649;52.084;7.478;2022-09-09T06:31:24;5.97;;;3.43;;
15096;SDS011;7649;52.084;7.478;2022-09-09T06:33:55;4.00;;;3.13;;
15096;SDS011;7649;52.084;7.478;2022-09-09T06:36:25;3.23;;;2.90;;
15096;SDS011;7649;52.084;7.478;2022-09-09T06:38:53;5.07;;;3.23;;
15096;SDS011;7649;52.084;7.478;2022-09-09T06:41:23;3.63;;;3.17;;
15096;SDS011;7649;52.084;7.478;2022-09-09T06:43:51;4.57;;;3.20;;
15096;SDS011;7649;52.084;7.478;2022-09-09T06:46:23;7.87;;;3.20;;
15096;SDS011;7649;52.084;7.478;2022-09-09T06:48:54;4.37;;;3.20;;
15096;SDS011;7649;52.084;7.478;2022-09-09T06:51:26;3.23;;;2.90;;
15096;SDS011;7649;52.084;7.478;2022-09-09T06:53:55;3.43;;;3.07;;
15096;SDS011;7649;52.084;7.478;2022-09-09T06:56:25;5.07;;;3.03;;
15096;SDS011;7649;52.084;7.478;2022-09-09T06:58:54;5.70;;;3.00;;
15096;SDS011;7649;52.084;7.478;2022-09-09T07:01:25;5.37;;;3.03;;
15096;SDS011;7649;52.084;7.478;2022-09-09T07:03:54;4.30;;;2.80;;
15096;SDS011;7649;52.084;7.478;2022-09-09T07:06:25;5.67;;;2.80;;
15096;SDS011;7649;52.084;7.478;2022-09-09T07:08:54;6.03;;;3.10;;
15096;SDS011;7649;52.084;7.478;2022-09-09T07:11:24;6.63;;;2.97;;
15096;SDS011;7649;52.084;7.478;2022-09-09T07:13:53;5.47;;;3.20;;
15096;SDS011;7649;52.084;7.478;2022-09-09T07:16:24;6.27;;;3.00;;
15096;SDS011;7649;52.084;7.478;2022-09-09T07:18:53;5.50;;;3.03;;
15096;SDS011;7649;52.084;7.478;2022-09-09T07:21:24;6.63;;;2.80;;
15096;SDS011;7649;52.084;7.478;2022-09-09T07:23:53;5.73;;;3.13;;
15096;SDS011;7649;52.084;7.478;2022-09-09T07:26:23;7.33;;;3.20;;
15096;SDS011;7649;52.084;7.478;2022-09-09T07:28:51;7.60;;;3.50;;
15096;SDS011;7649;52.084;7.478;2022-09-09T07:31:20;4.83;;;3.33;;
15096;SDS011;7649;52.084;7.478;2022-09-09T07:33:50;6.13;;;3.07;;
15096;SDS011;7649;52.084;7.478;2022-09-09T07:36:19;8.50;;;3.43;;
15096;SDS011;7649;52.084;7.478;2022-09-09T07:38:49;9.03;;;3.10;;
15096;SDS011;7649;52.084;7.478;2022-09-09T07:41:18;7.30;;;3.23;;
15096;SDS011;7649;52.084;7.478;2022-09-09T07:43:47;7.07;;;3.33;;
15096;SDS011;7649;52.084;7.478;2022-09-09T07:46:16;8.90;;;3.37;;
15096;SDS011;7649;52.084;7.478;2022-09-09T07:48:46;5.80;;;3.30;;
15096;SDS011;7649;52.084;7.478;2022-09-09T07:51:19;7.97;;;3.03;;
15096;SDS011;7649;52.084;7.478;2022-09-09T07:53:50;6.23;;;2.80;;
15096;SDS011;7649;52.084;7.478;2022-09-09T07:56:19;7.90;;;3.10;;
15096;SDS011;7649;52.084;7.478;2022-09-09T07:58:48;7.03;;;3.10;;
15096;SDS011;7649;52.084;7.478;2022-09-09T08:01:18;5.97;;;3.10;;
15096;SDS011;7649;52.084;7.478;2022-09-09T08:03:47;6.93;;;2.67;;
15096;SDS011;7649;52.084;7.478;2022-09-09T08:06:23;8.17;;;2.80;;
15096;SDS011;7649;52.084;7.478;2022-09-09T08:08:53;6.73;;;2.50;;
15096;SDS011;7649;52.084;7.478;2022-09-09T08:11:22;5.90;;;3.27;;
15096;SDS011;7649;52.084;7.478;2022-09-09T08:13:51;6.97;;;2.60;;
15096;SDS011;7649;52.084;7.478;2022-09-09T08:16:26;5.77;;;2.63;;
15096;SDS011;7649;52.084;7.478;2022-09-09T08:18:56;5.87;;;2.80;;
15096;SDS011;7649;52.084;7.478;2022-09-09T08:21:26;5.43;;;2.37;;
15096;SDS011;7649;52.084;7.478;2022-09-09T08:23:56;5.67;;;2.57;;
15096;SDS011;7649;52.084;7.478;2022-09-09T08:26:25;4.97;;;2.13;;
15096;SDS011;7649;52.084;7.478;2022-09-09T08:28:55;7.60;;;2.53;;
15096;SDS011;7649;52.084;7.478;2022-09-09T08:31:24;7.03;;;2.37;;
15096;SDS011;7649;52.084;7.478;2022-09-09T08:33:54;4.50;;;2.30;;
15096;SDS011;7649;52.084;7.478;2022-09-09T08:36:24;6.03;;;2.80;;
15096;SDS011;7649;52.084;7.478;2022-09-09T08:38:54;6.00;;;2.30;;
15096;SDS011;7649;52.084;7.478;2022-09-09T08:41:38;6.20;;;2.40;;
15096;SDS011;7649;52.084;7.478;2022-09-09T08:44:09;7.40;;;2.53;;
15096;SDS011;7649;52.084;7.478;2022-09-09T08:46:44;8.02;;;2.83;;
15096;SDS011;7649;52.084;7.478;2022-09-09T08:49:22;5.88;;;2.28;;
15096;SDS011;7649;52.084;7.478;2022-09-09T08:51:54;8.73;;;2.33;;
15096;SDS011;7649;52.084;7.478;2022-09-09T08:54:24;4.05;;;2.50;;
15096;SDS011;7649;52.084;7.478;2022-09-09T08:57:18;7.90;;;2.90;;
15096;SDS011;7649;52.084;7.478;2022-09-09T08:59:48;5.80;;;2.60;;
15096;SDS011;7649;52.084;7.478;2022-09-09T09:02:18;3.83;;;2.60;;
15096;SDS011;7649;52.084;7.478;2022-09-09T09:04:56;4.77;;;2.80;;
15096;SDS011;7649;52.084;7.478;2022-09-09T09:07:30;5.22;;;2.60;;
15096;SDS011;7649;52.084;7.478;2022-09-09T09:10:02;5.50;;;2.90;;
15096;SDS011;7649;52.084;7.478;2022-09-09T09:12:51;7.47;;;2.97;;
15096;SDS011;7649;52.084;7.478;2022-09-09T09:15:22;9.53;;;2.73;;
15096;SDS011;7649;52.084;7.478;2022-09-09T09:17:55;4.25;;;2.65;;
15096;SDS011;7649;52.084;7.478;2022-09-09T09:20:27;6.10;;;2.47;;
15096;SDS011;7649;52.084;7.478;2022-09-09T09:23:01;7.88;;;2.70;;
15096;SDS011;7649;52.084;7.478;2022-09-09T09:25:33;4.57;;;2.33;;
15096;SDS011;7649;52.084;7.478;2022-09-09T09:28:03;4.72;;;2.60;;
15096;SDS011;7649;52.084;7.478;2022-09-09T09:30:39;6.30;;;2.60;;
15096;SDS011;7649;52.084;7.478;2022-09-09T09:33:08;5.93;;;2.58;;
15096;SDS011;7649;52.084;7.478;2022-09-09T09:35:39;7.10;;;2.72;;
15096;SDS011;7649;52.084;7.478;2022-09-09T09:38:12;8.00;;;2.80;;
15096;SDS011;7649;52.084;7.478;2022-09-09T09:41:05;8.35;;;2.63;;
15096;SDS011;7649;52.084;7.478;2022-09-09T09:43:34;9.68;;;2.80;;
15096;SDS011;7649;52.084;7.478;2022-09-09T09:46:03;5.55;;;2.50;;
15096;SDS011;7649;52.084;7.478;2022-09-09T09:48:43;4.93;;;2.42;;
15096;SDS011;7649;52.084;7.478;2022-09-09T09:51:13;5.63;;;2.40;;
15096;SDS011;7649;52.084;7.478;2022-09-09T09:53:42;5.90;;;2.22;;
15096;SDS011;7649;52.084;7.478;2022-09-09T09:56:13;5.90;;;2.40;;
15096;SDS011;7649;52.084;7.478;2022-09-09T09:58:48;5.38;;;2.42;;
15096;SDS011;7649;52.084;7.478;2022-09-09T10:01:20;6.50;;;2.40;;
15096;SDS011;7649;52.084;7.478;2022-09-09T10:03:51;7.28;;;2.60;;
15096;SDS011;7649;52.084;7.478;2022-09-09T10:06:28;5.30;;;1.85;;
15096;SDS011;7649;52.084;7.478;2022-09-09T10:08:57;5.13;;;2.05;;
15096;SDS011;7649;52.084;7.478;2022-09-09T10:11:29;2.92;;;2.00;;
15096;SDS011;7649;52.084;7.478;2022-09-09T10:14:00;5.57;;;2.25;;
15096;SDS011;7649;52.084;7.478;2022-09-09T10:16:36;5.50;;;1.95;;
15096;SDS011;7649;52.084;7.478;2022-09-09T10:19:09;4.82;;;2.13;;
15096;SDS011;7649;52.084;7.478;2022-09-09T10:21:48;5.40;;;2.10;;
15096;SDS011;7649;52.084;7.478;2022-09-09T10:27:18;5.05;;;2.10;;
15096;SDS011;7649;52.084;7.478;2022-09-09T10:29:53;2.95;;;1.45;;
15096;SDS011;7649;52.084;7.478;2022-09-09T10:32:28;4.80;;;2.00;;
15096;SDS011;7649;52.084;7.478;2022-09-09T10:35:02;9.40;;;2.03;;
15096;SDS011;7649;52.084;7.478;2022-09-09T10:37:37;4.07;;;1.42;;
15096;SDS011;7649;52.084;7.478;2022-09-09T10:40:21;4.75;;;1.88;;
15096;SDS011;7649;52.084;7.478;2022-09-09T10:42:54;6.93;;;1.52;;
15096;SDS011;7649;52.084;7.478;2022-09-09T10:45:26;3.83;;;2.00;;
15096;SDS011;7649;52.084;7.478;2022-09-09T10:48:03;5.30;;;1.50;;
15096;SDS011;7649;52.084;7.478;2022-09-09T10:53:33;3.03;;;1.27;;
15096;SDS011;7649;52.084;7.478;2022-09-09T10:56:05;3.55;;;1.60;;
15096;SDS011;7649;52.084;7.478;2022-09-09T10:58:37;3.80;;;1.42;;
15096;SDS011;7649;52.084;7.478;2022-09-09T11:01:10;5.20;;;1.83;;
15096;SDS011;7649;52.084;7.478;2022-09-09T11:03:40;2.50;;;1.27;;
15096;SDS011;7649;52.084;7.478;2022-09-09T11:06:09;3.72;;;1.70;;
15096;SDS011;7649;52.084;7.478;2022-09-09T11:08:41;3.45;;;1.50;;
15096;SDS011;7649;52.084;7.478;2022-09-09T11:11:12;3.65;;;1.48;;
15096;SDS011;7649;52.084;7.478;2022-09-09T11:13:45;5.45;;;1.65;;
15096;SDS011;7649;52.084;7.478;2022-09-09T11:16:20;5.43;;;1.90;;
15096;SDS011;7649;52.084;7.478;2022-09-09T11:18:50;3.50;;;1.73;;
15096;SDS011;7649;52.084;7.478;2022-09-09T11:21:21;4.72;;;1.60;;
15096;SDS011;7649;52.084;7.478;2022-09-09T11:23:52;4.57;;;1.50;;
15096;SDS011;7649;52.084;7.478;2022-09-09T11:26:25;3.67;;;1.58;;
15096;SDS011;7649;52.084;7.478;2022-09-09T11:28:58;2.50;;;1.33;;
15096;SDS011;7649;52.084;7.478;2022-09-09T11:31:35;5.72;;;2.05;;
15096;SDS011;7649;52.084;7.478;2022-09-09T11:34:25;4.78;;;1.70;;
15096;SDS011;7649;52.084;7.478;2022-09-09T11:37:09;2.70;;;1.65;;
15096;SDS011;7649;52.084;7.478;2022-09-09T11:42:26;5.68;;;1.75;;
15096;SDS011;7649;52.084;7.478;2022-09-09T11:44:56;8.75;;;2.17;;
15096;SDS011;7649;52.084;7.478;2022-09-09T11:47:26;3.15;;;1.67;;
15096;SDS011;7649;52.084;7.478;2022-09-09T11:50:07;4.88;;;1.63;;
15096;SDS011;7649;52.084;7.478;2022-09-09T11:52:36;3.85;;;2.00;;
15096;SDS011;7649;52.084;7.478;2022-09-09T11:55:08;4.47;;;1.60;;
15096;SDS011;7649;52.084;7.478;2022-09-09T11:57:38;3.05;;;1.77;;
15096;SDS011;7649;52.084;7.478;2022-09-09T12:02:56;5.03;;;1.92;;
15096;SDS011;7649;52.084;7.478;2022-09-09T12:05:34;5.30;;;1.80;;
15096;SDS011;7649;52.084;7.478;2022-09-09T12:08:03;5.90;;;1.95;;
15096;SDS011;7649;52.084;7.478;2022-09-09T12:10:33;4.10;;;1.58;;
15096;SDS011;7649;52.084;7.478;2022-09-09T12:13:09;2.25;;;1.52;;
15096;SDS011;7649;52.084;7.478;2022-09-09T12:15:46;4.45;;;1.67;;
15096;SDS011;7649;52.084;7.478;2022-09-09T12:18:18;3.53;;;1.70;;
15096;SDS011;7649;52.084;7.478;2022-09-09T12:20:54;5.82;;;1.70;;
15096;SDS011;7649;52.084;7.478;2022-09-09T12:23:29;4.15;;;1.40;;
15096;SDS011;7649;52.084;7.478;2022-09-09T12:26:14;1.77;;;1.13;;
15096;SDS011;7649;52.084;7.478;2022-09-09T12:28:48;4.15;;;1.20;;
15096;SDS011;7649;52.084;7.478;2022-09-09T12:31:21;2.53;;;1.48;;
15096;SDS011;7649;52.084;7.478;2022-09-09T12:33:53;2.05;;;1.45;;
15096;SDS011;7649;52.084;7.478;2022-09-09T12:36:22;3.97;;;1.50;;
15096;SDS011;7649;52.084;7.478;2022-09-09T12:38:51;2.28;;;1.33;;
15096;SDS011;7649;52.084;7.478;2022-09-09T12:41:21;3.42;;;1.35;;
15096;SDS011;7649;52.084;7.478;2022-09-09T12:43:49;2.05;;;1.00;;
15096;SDS011;7649;52.084;7.478;2022-09-09T12:46:21;1.65;;;1.15;;
15096;SDS011;7649;52.084;7.478;2022-09-09T12:48:54;5.60;;;1.38;;
15096;SDS011;7649;52.084;7.478;2022-09-09T12:51:24;3.25;;;1.85;;
15096;SDS011;7649;52.084;7.478;2022-09-09T12:53:53;2.28;;;1.10;;
15096;SDS011;7649;52.084;7.478;2022-09-09T12:56:23;3.95;;;1.60;;
15096;SDS011;7649;52.084;7.478;2022-09-09T12:58:53;2.20;;;1.17;;
15096;SDS011;7649;52.084;7.478;2022-09-09T13:01:22;2.90;;;1.30;;
15096;SDS011;7649;52.084;7.478;2022-09-09T13:03:51;2.67;;;1.17;;
15096;SDS011;7649;52.084;7.478;2022-09-09T13:06:22;3.05;;;1.23;;
15096;SDS011;7649;52.084;7.478;2022-09-09T13:08:55;4.43;;;1.17;;
15096;SDS011;7649;52.084;7.478;2022-09-09T13:11:25;2.63;;;1.30;;
15096;SDS011;7649;52.084;7.478;2022-09-09T13:13:56;3.97;;;1.55;;
15096;SDS011;7649;52.084;7.478;2022-09-09T13:16:25;2.15;;;1.27;;
15096;SDS011;7649;52.084;7.478;2022-09-09T13:18:58;4.75;;;1.40;;
15096;SDS011;7649;52.084;7.478;2022-09-09T13:21:32;1.63;;;0.93;;
15096;SDS011;7649;52.084;7.478;2022-09-09T13:24:01;2.30;;;1.10;;
15096;SDS011;7649;52.084;7.478;2022-09-09T13:26:30;2.55;;;1.17;;
15096;SDS011;7649;52.084;7.478;2022-09-09T13:29:07;3.22;;;1.13;;
15096;SDS011;7649;52.084;7.478;2022-09-09T13:31:36;3.70;;;1.45;;
15096;SDS011;7649;52.084;7.478;2022-09-09T13:34:10;2.88;;;1.42;;
15096;SDS011;7649;52.084;7.478;2022-09-09T13:36:41;3.00;;;1.55;;
15096;SDS011;7649;52.084;7.478;2022-09-09T13:39:13;3.50;;;1.30;;
15096;SDS011;7649;52.084;7.478;2022-09-09T13:41:43;3.47;;;1.33;;
15096;SDS011;7649;52.084;7.478;2022-09-09T13:44:14;1.38;;;1.17;;
15096;SDS011;7649;52.084;7.478;2022-09-09T13:46:45;2.50;;;1.58;;
15096;SDS011;7649;52.084;7.478;2022-09-09T13:49:20;2.70;;;1.30;;
15096;SDS011;7649;52.084;7.478;2022-09-09T13:51:50;4.20;;;1.63;;
15096;SDS011;7649;52.084;7.478;2022-09-09T13:54:20;2.22;;;1.40;;
15096;SDS011;7649;52.084;7.478;2022-09-09T13:56:49;2.58;;;1.45;;
15096;SDS011;7649;52.084;7.478;2022-09-09T13:59:18;1.10;;;0.98;;
15096;SDS011;7649;52.084;7.478;2022-09-09T14:01:48;3.22;;;1.30;;
15096;SDS011;7649;52.084;7.478;2022-09-09T14:04:18;3.00;;;1.42;;
15096;SDS011;7649;52.084;7.478;2022-09-09T14:06:47;1.15;;;1.00;;
15096;SDS011;7649;52.084;7.478;2022-09-09T14:09:18;2.40;;;1.35;;
15096;SDS011;7649;52.084;7.478;2022-09-09T14:11:46;2.63;;;1.17;;
15096;SDS011;7649;52.084;7.478;2022-09-09T14:14:14;2.55;;;1.30;;
15096;SDS011;7649;52.084;7.478;2022-09-09T14:16:43;2.85;;;1.20;;
15096;SDS011;7649;52.084;7.478;2022-09-09T14:19:11;5.55;;;1.88;;
15096;SDS011;7649;52.084;7.478;2022-09-09T14:21:40;5.00;;;2.33;;
15096;SDS011;7649;52.084;7.478;2022-09-09T14:24:08;5.40;;;1.58;;
15096;SDS011;7649;52.084;7.478;2022-09-09T14:26:39;3.30;;;1.40;;
15096;SDS011;7649;52.084;7.478;2022-09-09T14:29:07;2.77;;;1.70;;
15096;SDS011;7649;52.084;7.478;2022-09-09T14:31:35;3.33;;;2.05;;
15096;SDS011;7649;52.084;7.478;2022-09-09T14:34:04;7.53;;;1.90;;
15096;SDS011;7649;52.084;7.478;2022-09-09T14:36:32;3.40;;;1.48;;
15096;SDS011;7649;52.084;7.478;2022-09-09T14:39:00;3.90;;;1.70;;
15096;SDS011;7649;52.084;7.478;2022-09-09T14:41:28;3.10;;;1.90;;
15096;SDS011;7649;52.084;7.478;2022-09-09T14:43:58;3.60;;;1.70;;
15096;SDS011;7649;52.084;7.478;2022-09-09T14:46:26;4.30;;;2.00;;
15096;SDS011;7649;52.084;7.478;2022-09-09T14:48:55;1.73;;;1.20;;
15096;SDS011;7649;52.084;7.478;2022-09-09T14:51:24;4.72;;;2.03;;
15096;SDS011;7649;52.084;7.478;2022-09-09T14:53:53;2.35;;;1.90;;
15096;SDS011;7649;52.084;7.478;2022-09-09T14:56:24;4.43;;;1.40;;
15096;SDS011;7649;52.084;7.478;2022-09-09T14:58:52;2.67;;;1.40;;
15096;SDS011;7649;52.084;7.478;2022-09-09T15:01:22;2.50;;;1.35;;
15096;SDS011;7649;52.084;7.478;2022-09-09T15:03:54;2.00;;;1.20;;
15096;SDS011;7649;52.084;7.478;2022-09-09T15:06:24;3.97;;;1.55;;
15096;SDS011;7649;52.084;7.478;2022-09-09T15:08:53;2.53;;;1.27;;
15096;SDS011;7649;52.084;7.478;2022-09-09T15:11:25;2.35;;;1.25;;
15096;SDS011;7649;52.084;7.478;2022-09-09T15:13:54;2.83;;;1.55;;
15096;SDS011;7649;52.084;7.478;2022-09-09T15:16:24;2.22;;;1.17;;
15096;SDS011;7649;52.084;7.478;2022-09-09T15:18:54;2.13;;;1.08;;
15096;SDS011;7649;52.084;7.478;2022-09-09T15:21:25;1.85;;;1.02;;
15096;SDS011;7649;52.084;7.478;2022-09-09T15:23:54;2.63;;;1.20;;
15096;SDS011;7649;52.084;7.478;2022-09-09T15:26:23;2.20;;;1.35;;
15096;SDS011;7649;52.084;7.478;2022-09-09T15:28:51;1.20;;;0.82;;
15096;SDS011;7649;52.084;7.478;2022-09-09T15:31:20;1.70;;;0.90;;
15096;SDS011;7649;52.084;7.478;2022-09-09T15:33:51;1.52;;;1.08;;